ADDS METAR Data INFO
IDs: Format: Raw Decoded Include TAF

Data at: 0711 UTC 19 Oct 2017

KOWB 190656Z AUTO 15004KT 10SM CLR 10/07 A3021 RMK AO2 SLP240 T01000072
KOWB 190556Z AUTO 16005KT 10SM CLR 10/07 A3020 RMK AO2 SLP237 T01000072 10161 20100 402220056 58003
KOWB 190456Z AUTO 16006KT 10SM CLR 11/08 A3020 RMK AO2 SLP238 T01110078
KOWB 190356Z AUTO 17004KT 10SM CLR 12/08 A3021 RMK AO2 SLP240 T01220078
KOWB 190256Z 16004KT 10SM CLR 12/08 A3021 RMK AO2 SLP241 T01220078 53001
KOWB 190156Z 16003KT 10SM CLR 13/08 A3020 RMK AO2 SLP239 T01280083
KOWB 190056Z 15005KT 10SM CLR 14/09 A3020 RMK AO2 SLP240 T01440089
KOWB 182356Z 17004KT 10SM CLR 16/09 A3020 RMK AO2 SLP241 T01610089 10222 20156 53000
KOWB 182256Z 16007KT 10SM CLR 19/09 A3019 RMK AO2 SLP236 T01890089
KOWB 182156Z 17011KT 10SM CLR 22/09 A3019 RMK AO2 SLP236 T02170089
KOWB 182056Z 16008KT 10SM CLR 22/08 A3020 RMK AO2 SLP238 T02220083 56021
KOWB 181956Z 19007KT 10SM CLR 22/09 A3021 RMK AO2 SLP242 T02220089
KOWB 181856Z 20010KT 10SM CLR 21/08 A3023 RMK AO2 SLP250 T02110083
KOWB 181756Z 20009KT 10SM CLR 21/08 A3026 RMK AO2 SLP260 T02060083 10211 20056 58019
KOWB 181656Z 19013KT 10SM CLR 20/08 A3029 RMK AO2 SLP267 T02000083
KOWB 181556Z 20007KT 10SM CLR 19/09 A3031 RMK AO2 SLP275 T01890089
KOWB 181456Z 19007KT 10SM CLR 15/09 A3032 RMK AO2 SLP280 T01500089 51013
KOWB 181356Z 17006KT 10SM CLR 12/08 A3031 RMK AO2 SLP277 T01170083
KOWB 181256Z 17005KT 10SM CLR 08/07 A3030 RMK AO2 SLP274 T00830067
KOWB 181156Z 16005KT 7SM CLR 07/06 A3028 RMK AO2 SLP268 T00670056 10083 20061 51007
KOWB 181056Z 16005KT 7SM CLR 06/05 A3028 RMK AO2 SLP267 T00610050
KOWB 180956Z AUTO 12003KT 10SM CLR 07/06 A3027 RMK AO2 SLP263 T00670056
KOWB 180856Z AUTO 12003KT 10SM CLR 07/06 A3026 RMK AO2 SLP260 T00720056 55001
KOWB 180756Z AUTO 12003KT 10SM CLR 08/06 A3026 RMK AO2 SLP259 T00830061
KOWB 180656Z AUTO 12003KT 10SM CLR 08/07 A3026 RMK AO2 SLP259 T00780067
KOWB 180556Z AUTO 00000KT 10SM CLR 08/07 A3026 RMK AO2 SLP260 T00830067 10150 20083 402060039 57002
KOWB 180456Z AUTO 00000KT 10SM CLR 09/07 A3026 RMK AO2 SLP260 T00940072
KOWB 180356Z AUTO 00000KT 10SM CLR 09/07 A3027 RMK AO2 SLP263 T00940072
KOWB 180256Z 00000KT 10SM CLR 10/07 A3027 RMK AO2 SLP264 T01000072 52004
KOWB 180156Z 13005KT 10SM CLR 11/08 A3026 RMK AO2 SLP262 T01110078
KOWB 180056Z 00000KT 10SM CLR 13/07 A3027 RMK AO2 SLP264 T01330072
KOWB 172356Z 00000KT 10SM CLR 15/07 A3026 RMK AO2 SLP261 T01500072 10206 20150 55003
KOWB 172256Z 14004KT 10SM CLR 17/06 A3026 RMK AO2 SLP260 T01720061
KOWB 172156Z 19003KT 10SM CLR 19/06 A3026 RMK AO2 SLP259 T01890056
KOWB 172056Z 00000KT 10SM CLR 19/06 A3027 RMK AO2 SLP262 T01890056 56022
KOWB 171956Z 17004KT 10SM CLR 19/06 A3028 RMK AO2 SLP267 T01940056